Terminal Aerodrome Forecast
Issued by NWS Cleveland, OH

Home | Current Version | Previous Version | Text Only | Print | Product List | Glossary On
Versions: 1 2 3 4 5 6 7 8 9 10 11 12 13 14 15 16
000
FTUS41 KCLE 301100
TAFCAK
TAF
KCAK 301120Z 3012/3112 29012G18KT P6SM OVC040
     FM301300 28012G20KT P6SM SKC
     FM301600 28015G25KT P6SM SCT250
     FM302200 26014G22KT P6SM SCT120 BKN250
     FM310200 22006KT P6SM OVC120
     FM310400 21006KT P6SM OVC045
     FM311000 18008KT 5SM -SHRA OVC035=

USA.gov is the U.S. government's official web portal to all federal, state and local government web resources and services.